LPE2482 SPJC-KATL
Flight info
| Callsign | LPE2482 |
|---|---|
| Flight time | N/A |
| Altitude | 32000 |
| Route | TELEB2F ATATU UM674 BOBUG/N0468F330 UM674 ROBIG/N0467F340 UM674 TOKUT/N0462F360 UM674 TBG UL465 GCM UG448 XOPLI/N0454F380 UG448 KELNI/N0453F370 DCT IKBIX Y183 PEAKY/N0453F380 Q118 SHEEK Q110 DAWWN DCT BEORN HOBTT3 |
| Aircraft | B763/H-SDE3FGHIM3RWXY/LB1 |
Departure
| Time | 2026-05-05 19:26 |
|---|---|
| Airport | Jorge Chávez International Airport (SPJC) |
Arrival
| Time | N/A |
|---|---|
| Airport | Hartsfield Jackson Atlanta International Airport (KATL) |
| Time | Latitude | Longitude | Altitude | Speed | Heading |
|---|---|---|---|---|---|
| 2026-05-05 17:18 | -12.02715 | -77.11855 | 119 ft | 0 kts | 64° |
| 2026-05-05 19:11 | -12.02718 | -77.11863 | 118 ft | 2 kts | 64° |
| 2026-05-05 19:11 | -12.02725 | -77.11877 | 118 ft | 2 kts | 64° |
| 2026-05-05 19:11 | -12.02732 | -77.11891 | 118 ft | 2 kts | 64° |
| 2026-05-05 19:12 | -12.02738 | -77.11905 | 118 ft | 1 kts | 64° |
| 2026-05-05 19:12 | -12.02742 | -77.11914 | 118 ft | 2 kts | 56° |
| 2026-05-05 19:12 | -12.02754 | -77.11924 | 118 ft | 2 kts | 20° |
| 2026-05-05 19:12 | -12.02769 | -77.11927 | 118 ft | 2 kts | 352° |
| 2026-05-05 19:13 | -12.02778 | -77.11925 | 118 ft | 0 kts | 335° |
| 2026-05-05 19:13 | -12.02783 | -77.11922 | 118 ft | 0 kts | 333° |
| 2026-05-05 19:16 | -12.02782 | -77.11922 | 118 ft | 0 kts | 333° |
| 2026-05-05 19:17 | -12.02762 | -77.11932 | 118 ft | 5 kts | 335° |
| 2026-05-05 19:17 | -12.02721 | -77.11952 | 118 ft | 7 kts | 335° |
| 2026-05-05 19:17 | -12.02665 | -77.11979 | 118 ft | 9 kts | 335° |
| 2026-05-05 19:17 | -12.02599 | -77.12011 | 118 ft | 11 kts | 334° |
| 2026-05-05 19:18 | -12.02555 | -77.12053 | 118 ft | 8 kts | 269° |
| 2026-05-05 19:18 | -12.02576 | -77.12117 | 118 ft | 10 kts | 245° |
| 2026-05-05 19:18 | -12.02571 | -77.12183 | 118 ft | 9 kts | 327° |
| 2026-05-05 19:18 | -12.02502 | -77.12217 | 118 ft | 12 kts | 334° |
| 2026-05-05 19:19 | -12.02417 | -77.12259 | 118 ft | 15 kts | 334° |
| 2026-05-05 19:19 | -12.02311 | -77.12311 | 118 ft | 17 kts | 334° |
| 2026-05-05 19:19 | -12.02190 | -77.12371 | 118 ft | 21 kts | 333° |
| 2026-05-05 19:19 | -12.02114 | -77.12398 | 118 ft | 7 kts | 359° |
| 2026-05-05 19:20 | -12.02084 | -77.12359 | 118 ft | 8 kts | 64° |
| 2026-05-05 19:20 | -12.02054 | -77.12292 | 118 ft | 11 kts | 64° |
| 2026-05-05 19:20 | -12.02014 | -77.12208 | 118 ft | 14 kts | 64° |
| 2026-05-05 19:20 | -12.01964 | -77.12102 | 118 ft | 18 kts | 64° |
| 2026-05-05 19:21 | -12.01906 | -77.11980 | 118 ft | 20 kts | 64° |
| 2026-05-05 19:21 | -12.01845 | -77.11853 | 118 ft | 17 kts | 64° |
| 2026-05-05 19:21 | -12.01796 | -77.11805 | 118 ft | 10 kts | 354° |
| 2026-05-05 19:21 | -12.01720 | -77.11836 | 118 ft | 13 kts | 335° |
| 2026-05-05 19:22 | -12.01623 | -77.11883 | 118 ft | 17 kts | 333° |
| 2026-05-05 19:22 | -12.01502 | -77.11945 | 118 ft | 21 kts | 334° |
| 2026-05-05 19:22 | -12.01359 | -77.12015 | 118 ft | 24 kts | 334° |
| 2026-05-05 19:22 | -12.01255 | -77.12106 | 118 ft | 21 kts | 308° |
| 2026-05-05 19:23 | -12.01127 | -77.12202 | 118 ft | 23 kts | 335° |
| 2026-05-05 19:23 | -12.00970 | -77.12282 | 118 ft | 25 kts | 334° |
| 2026-05-05 19:23 | -12.00852 | -77.12289 | 118 ft | 18 kts | 55° |
| 2026-05-05 19:23 | -12.00803 | -77.12193 | 118 ft | 11 kts | 64° |
| 2026-05-05 19:24 | -12.00789 | -77.12127 | 118 ft | 8 kts | 118° |
| 2026-05-05 19:24 | -12.00800 | -77.12118 | 118 ft | 0 kts | 152° |
| 2026-05-05 19:25 | -12.00975 | -77.12032 | 118 ft | 60 kts | 154° |
| 2026-05-05 19:26 | -12.01539 | -77.11753 | 118 ft | 120 kts | 154° |
| 2026-05-05 19:26 | -12.02477 | -77.11287 | 127 ft | 174 kts | 156° |
| 2026-05-05 19:26 | -12.03583 | -77.10763 | 774 ft | 176 kts | 157° |
| 2026-05-05 19:26 | -12.04698 | -77.10194 | 1382 ft | 186 kts | 154° |
| 2026-05-05 19:27 | -12.05872 | -77.09585 | 2025 ft | 194 kts | 154° |
| 2026-05-05 19:27 | -12.07097 | -77.08974 | 2670 ft | 201 kts | 154° |
| 2026-05-05 19:27 | -12.08376 | -77.08344 | 3362 ft | 205 kts | 154° |
| 2026-05-05 19:27 | -12.09704 | -77.07697 | 3713 ft | 225 kts | 154° |
| 2026-05-05 19:28 | -12.11227 | -77.06960 | 3906 ft | 254 kts | 154° |
| 2026-05-05 19:28 | -12.12889 | -77.06243 | 4437 ft | 268 kts | 166° |
| 2026-05-05 19:28 | -12.14762 | -77.06240 | 5113 ft | 276 kts | 195° |
| 2026-05-05 19:28 | -12.16446 | -77.07159 | 5845 ft | 281 kts | 224° |
| 2026-05-05 19:29 | -12.17532 | -77.08787 | 6608 ft | 281 kts | 252° |
| 2026-05-05 19:29 | -12.17752 | -77.10719 | 7413 ft | 280 kts | 278° |
| 2026-05-05 19:29 | -12.17279 | -77.12672 | 8161 ft | 283 kts | 285° |
| 2026-05-05 19:29 | -12.16850 | -77.14637 | 8979 ft | 284 kts | 281° |
| 2026-05-05 19:30 | -12.16513 | -77.16653 | 9693 ft | 289 kts | 279° |
| 2026-05-05 19:30 | -12.16216 | -77.18676 | 10347 ft | 295 kts | 279° |
| 2026-05-05 19:30 | -12.15914 | -77.20889 | 10410 ft | 325 kts | 278° |
| 2026-05-05 19:30 | -12.15602 | -77.23225 | 10784 ft | 341 kts | 280° |
| 2026-05-05 19:31 | -12.14891 | -77.25562 | 11528 ft | 345 kts | 297° |
| 2026-05-05 19:31 | -12.13528 | -77.27576 | 12261 ft | 348 kts | 314° |
| 2026-05-05 19:31 | -12.11637 | -77.29154 | 13047 ft | 350 kts | 326° |
| 2026-05-05 19:31 | -12.09641 | -77.30557 | 13802 ft | 354 kts | 326° |
| 2026-05-05 19:32 | -12.07618 | -77.31979 | 14561 ft | 357 kts | 326° |
| 2026-05-05 19:32 | -12.05542 | -77.33433 | 15304 ft | 360 kts | 327° |
| 2026-05-05 19:32 | -12.03467 | -77.34885 | 16025 ft | 364 kts | 327° |
| 2026-05-05 19:32 | -12.01387 | -77.36340 | 16724 ft | 367 kts | 327° |
| 2026-05-05 19:33 | -11.99300 | -77.37799 | 17416 ft | 370 kts | 327° |
| 2026-05-05 19:33 | -11.97142 | -77.39307 | 18048 ft | 374 kts | 327° |
| 2026-05-05 19:33 | -11.95006 | -77.40800 | 18701 ft | 377 kts | 327° |
| 2026-05-05 19:33 | -11.92826 | -77.42323 | 19344 ft | 380 kts | 327° |
| 2026-05-05 19:34 | -11.90658 | -77.43836 | 19958 ft | 384 kts | 327° |
| 2026-05-05 19:34 | -11.88433 | -77.45391 | 20586 ft | 387 kts | 327° |
| 2026-05-05 19:34 | -11.86206 | -77.46945 | 21181 ft | 390 kts | 327° |
| 2026-05-05 19:35 | -11.81769 | -77.50042 | 22332 ft | 397 kts | 327° |
| 2026-05-05 19:35 | -11.79483 | -77.51637 | 22911 ft | 400 kts | 327° |
| 2026-05-05 19:35 | -11.77185 | -77.53207 | 23456 ft | 402 kts | 330° |
| 2026-05-05 19:35 | -11.74776 | -77.54673 | 24018 ft | 405 kts | 331° |
| 2026-05-05 19:36 | -11.72351 | -77.56157 | 24640 ft | 408 kts | 331° |
| 2026-05-05 19:36 | -11.69945 | -77.57631 | 25358 ft | 409 kts | 331° |
| 2026-05-05 19:36 | -11.67486 | -77.59138 | 26005 ft | 412 kts | 331° |
| 2026-05-05 19:36 | -11.65052 | -77.60630 | 26620 ft | 415 kts | 331° |
| 2026-05-05 19:37 | -11.62572 | -77.62151 | 27249 ft | 417 kts | 331° |
| 2026-05-05 19:37 | -11.60091 | -77.63673 | 27855 ft | 419 kts | 331° |
| 2026-05-05 19:37 | -11.57569 | -77.65219 | 28454 ft | 422 kts | 331° |
| 2026-05-05 19:37 | -11.55068 | -77.66753 | 29030 ft | 424 kts | 331° |
| 2026-05-05 19:38 | -11.52526 | -77.68310 | 29603 ft | 426 kts | 331° |
| 2026-05-05 19:38 | -11.49989 | -77.69865 | 30158 ft | 429 kts | 331° |
| 2026-05-05 19:38 | -11.47428 | -77.71434 | 30661 ft | 432 kts | 331° |
| 2026-05-05 19:38 | -11.44861 | -77.73006 | 31287 ft | 432 kts | 331° |
| 2026-05-05 19:39 | -11.42297 | -77.74577 | 31927 ft | 431 kts | 330° |
| 2026-05-05 19:39 | -11.37153 | -77.77726 | 32028 ft | 428 kts | 330° |
| 2026-05-05 19:40 | -11.32063 | -77.80841 | 32047 ft | 427 kts | 330° |
| 2026-05-05 19:40 | -11.26984 | -77.83947 | 32045 ft | 428 kts | 331° |
| 2026-05-05 19:41 | -11.21887 | -77.87064 | 32045 ft | 428 kts | 331° |
| 2026-05-05 19:41 | -11.16770 | -77.90191 | 32045 ft | 428 kts | 331° |
| 2026-05-05 19:42 | -11.11660 | -77.93313 | 32045 ft | 430 kts | 331° |
| 2026-05-05 19:42 | -11.06365 | -77.95976 | 32049 ft | 427 kts | 344° |
| 2026-05-05 19:43 | -11.00529 | -77.96868 | 32050 ft | 426 kts | 356° |
| 2026-05-05 19:43 | -10.94583 | -77.97246 | 32044 ft | 427 kts | 357° |
| 2026-05-05 19:44 | -10.88684 | -77.97566 | 32047 ft | 427 kts | 358° |
| 2026-05-05 19:44 | -10.82742 | -77.97871 | 32055 ft | 427 kts | 358° |
| 2026-05-05 19:45 | -10.76809 | -77.98173 | 32065 ft | 429 kts | 358° |
| 2026-05-05 19:45 | -10.70857 | -77.98474 | 32074 ft | 429 kts | 358° |
| 2026-05-05 19:46 | -10.64879 | -77.98776 | 32075 ft | 429 kts | 358° |
| 2026-05-05 19:46 | -10.58947 | -77.99076 | 32075 ft | 429 kts | 358° |
| 2026-05-05 19:47 | -10.53020 | -77.99375 | 32073 ft | 430 kts | 358° |
| 2026-05-05 19:47 | -10.47021 | -77.99678 | 32074 ft | 430 kts | 358° |
| 2026-05-05 19:48 | -10.41063 | -77.99979 | 32073 ft | 430 kts | 358° |
| 2026-05-05 19:48 | -10.35102 | -78.00279 | 32073 ft | 430 kts | 358° |
| 2026-05-05 19:49 | -10.29122 | -78.00581 | 32072 ft | 430 kts | 358° |
| 2026-05-05 19:49 | -10.23166 | -78.00881 | 32072 ft | 430 kts | 358° |
| 2026-05-05 19:50 | -10.17192 | -78.01182 | 32128 ft | 430 kts | 358° |
| 2026-05-05 19:50 | -10.11221 | -78.01482 | 32192 ft | 428 kts | 358° |
| 2026-05-05 19:51 | -10.05279 | -78.01781 | 32244 ft | 428 kts | 358° |
| 2026-05-05 19:51 | -9.99342 | -78.02080 | 32240 ft | 428 kts | 358° |
| 2026-05-05 19:52 | -9.93428 | -78.02378 | 32237 ft | 428 kts | 358° |
| 2026-05-05 19:52 | -9.87444 | -78.02679 | 32240 ft | 428 kts | 358° |
| 2026-05-05 19:53 | -9.81444 | -78.02981 | 32235 ft | 428 kts | 358° |
| 2026-05-05 19:53 | -9.75540 | -78.03278 | 32232 ft | 428 kts | 358° |
| 2026-05-05 19:54 | -9.69600 | -78.03576 | 32231 ft | 429 kts | 358° |
| 2026-05-05 19:54 | -9.63612 | -78.03876 | 32229 ft | 431 kts | 358° |
| 2026-05-05 19:55 | -9.57640 | -78.04176 | 32226 ft | 432 kts | 358° |
| 2026-05-05 19:55 | -9.51643 | -78.04478 | 32220 ft | 432 kts | 358° |
| 2026-05-05 19:56 | -9.45614 | -78.04780 | 32216 ft | 433 kts | 358° |
| 2026-05-05 19:56 | -9.39645 | -78.05080 | 32211 ft | 432 kts | 358° |
| 2026-05-05 19:57 | -9.33627 | -78.05381 | 32206 ft | 433 kts | 358° |
| 2026-05-05 19:57 | -9.27621 | -78.05682 | 32201 ft | 433 kts | 358° |
| 2026-05-05 19:58 | -9.21588 | -78.05984 | 32195 ft | 433 kts | 358° |
| 2026-05-05 19:58 | -9.15609 | -78.06284 | 32190 ft | 433 kts | 358° |
| 2026-05-05 19:59 | -9.09589 | -78.06585 | 32185 ft | 434 kts | 358° |
| 2026-05-05 19:59 | -9.03546 | -78.06888 | 32154 ft | 432 kts | 358° |
| 2026-05-05 20:00 | -8.97559 | -78.07188 | 32128 ft | 431 kts | 358° |
| 2026-05-05 20:00 | -8.91572 | -78.07487 | 32113 ft | 431 kts | 358° |
| 2026-05-05 20:01 | -8.85526 | -78.07789 | 32115 ft | 432 kts | 358° |
| 2026-05-05 20:01 | -8.79482 | -78.08092 | 32111 ft | 430 kts | 358° |
| 2026-05-05 20:02 | -8.73500 | -78.08390 | 32109 ft | 432 kts | 358° |
| 2026-05-05 20:02 | -8.67498 | -78.08690 | 32105 ft | 432 kts | 358° |
| 2026-05-05 20:03 | -8.61470 | -78.08991 | 32103 ft | 432 kts | 358° |
| 2026-05-05 20:03 | -8.55504 | -78.09289 | 32099 ft | 432 kts | 358° |
| 2026-05-05 20:04 | -8.49467 | -78.09590 | 32096 ft | 432 kts | 359° |
| 2026-05-05 20:04 | -8.43464 | -78.09889 | 32098 ft | 432 kts | 359° |
| 2026-05-05 20:05 | -8.37478 | -78.10188 | 32103 ft | 432 kts | 359° |
| 2026-05-05 20:05 | -8.31471 | -78.10487 | 32109 ft | 432 kts | 359° |
| 2026-05-05 20:06 | -8.25504 | -78.10785 | 32109 ft | 432 kts | 359° |
| 2026-05-05 20:06 | -8.19508 | -78.11084 | 32107 ft | 432 kts | 359° |
| 2026-05-05 20:07 | -8.13517 | -78.11382 | 32104 ft | 432 kts | 359° |
| 2026-05-05 20:07 | -8.07536 | -78.11681 | 32102 ft | 432 kts | 359° |
| 2026-05-05 20:08 | -8.01521 | -78.11980 | 32100 ft | 432 kts | 359° |
| 2026-05-05 20:08 | -7.95531 | -78.12279 | 32097 ft | 432 kts | 359° |
| 2026-05-05 20:09 | -7.89518 | -78.12579 | 32096 ft | 432 kts | 359° |
| 2026-05-05 20:09 | -7.83487 | -78.12879 | 32097 ft | 432 kts | 359° |
| 2026-05-05 20:10 | -7.77442 | -78.13180 | 32120 ft | 432 kts | 359° |
| 2026-05-05 20:10 | -7.71436 | -78.13480 | 32150 ft | 433 kts | 359° |
| 2026-05-05 20:11 | -7.65420 | -78.13779 | 32180 ft | 433 kts | 359° |
| 2026-05-05 20:11 | -7.59435 | -78.14077 | 32180 ft | 433 kts | 359° |
| 2026-05-05 20:12 | -7.53423 | -78.14374 | 32182 ft | 433 kts | 359° |
| 2026-05-05 20:12 | -7.47406 | -78.14672 | 32183 ft | 433 kts | 359° |
| 2026-05-05 20:13 | -7.41404 | -78.14968 | 32185 ft | 433 kts | 359° |
| 2026-05-05 20:13 | -7.35389 | -78.15266 | 32186 ft | 433 kts | 359° |
| 2026-05-05 20:14 | -7.29376 | -78.15562 | 32222 ft | 433 kts | 359° |
| 2026-05-05 20:14 | -7.23373 | -78.15859 | 32263 ft | 433 kts | 359° |
| 2026-05-05 20:15 | -7.17359 | -78.16156 | 32299 ft | 434 kts | 359° |
| 2026-05-05 20:15 | -7.11333 | -78.16454 | 32299 ft | 434 kts | 359° |
| 2026-05-05 20:16 | -7.05298 | -78.16751 | 32301 ft | 435 kts | 359° |
| 2026-05-05 20:16 | -6.99235 | -78.17050 | 32303 ft | 434 kts | 359° |
| 2026-05-05 20:17 | -6.93216 | -78.17347 | 32304 ft | 435 kts | 359° |
| 2026-05-05 20:17 | -6.87181 | -78.17645 | 32311 ft | 435 kts | 359° |
| 2026-05-05 20:18 | -6.81122 | -78.17943 | 32312 ft | 435 kts | 359° |
| 2026-05-05 20:18 | -6.78139 | -78.18089 | 32474 ft | 440 kts | 359° |
| 2026-05-05 20:18 | -6.75069 | -78.18241 | 33215 ft | 436 kts | 359° |
| 2026-05-05 20:18 | -6.72066 | -78.18389 | 33964 ft | 431 kts | 359° |
| 2026-05-05 20:19 | -6.69077 | -78.18536 | 34316 ft | 433 kts | 358° |
| 2026-05-05 20:19 | -6.63076 | -78.18830 | 34284 ft | 430 kts | 358° |
| 2026-05-05 20:20 | -6.57083 | -78.19123 | 34250 ft | 430 kts | 358° |
| 2026-05-05 20:20 | -6.51094 | -78.19417 | 34224 ft | 429 kts | 358° |
| 2026-05-05 20:21 | -6.45099 | -78.19710 | 34224 ft | 429 kts | 358° |
| 2026-05-05 20:21 | -6.39113 | -78.20003 | 34223 ft | 430 kts | 358° |
| 2026-05-05 20:22 | -6.33160 | -78.20293 | 34220 ft | 430 kts | 358° |
| 2026-05-05 20:22 | -6.27149 | -78.20588 | 34220 ft | 431 kts | 358° |
| 2026-05-05 20:23 | -6.21191 | -78.20879 | 34219 ft | 430 kts | 358° |
| 2026-05-05 20:23 | -6.15184 | -78.21172 | 34218 ft | 430 kts | 358° |
| 2026-05-05 20:24 | -6.09153 | -78.21468 | 34216 ft | 430 kts | 358° |
| 2026-05-05 20:24 | -6.03200 | -78.21758 | 34176 ft | 431 kts | 358° |
| 2026-05-05 20:25 | -5.97201 | -78.22051 | 34098 ft | 430 kts | 358° |
| 2026-05-05 20:25 | -5.91145 | -78.22347 | 34018 ft | 429 kts | 358° |
| 2026-05-05 20:26 | -5.85229 | -78.22636 | 34010 ft | 430 kts | 358° |
| 2026-05-05 20:26 | -5.79285 | -78.22926 | 34006 ft | 430 kts | 358° |
| 2026-05-05 20:27 | -5.73295 | -78.23218 | 34003 ft | 430 kts | 358° |
| 2026-05-05 20:27 | -5.67328 | -78.23508 | 34000 ft | 430 kts | 358° |
| 2026-05-05 20:28 | -5.61339 | -78.23801 | 33998 ft | 430 kts | 359° |
| 2026-05-05 20:28 | -5.55443 | -78.24088 | 33994 ft | 429 kts | 359° |
| 2026-05-05 20:29 | -5.49409 | -78.24383 | 33993 ft | 430 kts | 359° |
| 2026-05-05 20:29 | -5.43332 | -78.24679 | 33993 ft | 430 kts | 359° |
| 2026-05-05 20:30 | -5.37312 | -78.24972 | 34010 ft | 430 kts | 359° |
| 2026-05-05 20:30 | -5.31226 | -78.25269 | 34030 ft | 430 kts | 359° |
| 2026-05-05 20:31 | -5.25216 | -78.25562 | 34047 ft | 431 kts | 359° |
| 2026-05-05 20:31 | -5.19186 | -78.25855 | 34046 ft | 431 kts | 359° |
| 2026-05-05 20:32 | -5.13228 | -78.26146 | 34044 ft | 428 kts | 359° |
| 2026-05-05 20:32 | -5.07283 | -78.26435 | 34047 ft | 429 kts | 359° |
| 2026-05-05 20:33 | -5.01319 | -78.26726 | 34045 ft | 429 kts | 359° |
| 2026-05-05 20:33 | -4.95352 | -78.27016 | 34046 ft | 429 kts | 359° |
| 2026-05-05 20:34 | -4.89412 | -78.27305 | 34054 ft | 429 kts | 359° |
| 2026-05-05 20:34 | -4.83402 | -78.27597 | 34068 ft | 430 kts | 359° |
| 2026-05-05 20:35 | -4.77425 | -78.27888 | 34076 ft | 430 kts | 359° |
| 2026-05-05 20:35 | -4.71577 | -78.28172 | 34075 ft | 430 kts | 359° |
| 2026-05-05 20:36 | -4.65571 | -78.28464 | 34076 ft | 430 kts | 359° |
| 2026-05-05 20:36 | -4.59590 | -78.28755 | 34075 ft | 430 kts | 359° |
| 2026-05-05 20:37 | -4.53580 | -78.29047 | 34075 ft | 430 kts | 359° |
| 2026-05-05 20:37 | -4.47609 | -78.29337 | 34075 ft | 430 kts | 359° |
| 2026-05-05 20:38 | -4.41662 | -78.29627 | 34075 ft | 429 kts | 359° |
| 2026-05-05 20:38 | -4.35587 | -78.29922 | 34074 ft | 430 kts | 359° |
| 2026-05-05 20:39 | -4.29576 | -78.30214 | 34074 ft | 430 kts | 359° |
| 2026-05-05 20:39 | -4.23512 | -78.30508 | 34074 ft | 431 kts | 359° |
| 2026-05-05 20:40 | -4.17532 | -78.30798 | 34073 ft | 430 kts | 359° |
| 2026-05-05 20:40 | -4.11534 | -78.31090 | 34073 ft | 431 kts | 359° |
| 2026-05-05 20:41 | -4.05512 | -78.31382 | 34073 ft | 431 kts | 359° |
| 2026-05-05 20:41 | -3.99549 | -78.31672 | 34073 ft | 430 kts | 359° |
| 2026-05-05 20:42 | -3.93529 | -78.31964 | 34072 ft | 430 kts | 359° |
| 2026-05-05 20:42 | -3.87564 | -78.32253 | 34077 ft | 430 kts | 359° |
| 2026-05-05 20:43 | -3.81545 | -78.32546 | 34077 ft | 431 kts | 359° |
| 2026-05-05 20:43 | -3.75703 | -78.32828 | 34077 ft | 431 kts | 359° |
| 2026-05-05 20:44 | -3.69579 | -78.33125 | 34076 ft | 431 kts | 359° |
| 2026-05-05 20:44 | -3.63566 | -78.33418 | 34076 ft | 431 kts | 359° |
| 2026-05-05 20:45 | -3.54545 | -78.33855 | 34075 ft | 431 kts | 359° |
| 2026-05-05 20:45 | -3.48539 | -78.34147 | 34075 ft | 431 kts | 359° |
| 2026-05-05 20:46 | -3.42498 | -78.34447 | 34075 ft | 432 kts | 359° |
| 2026-05-05 20:46 | -3.36517 | -78.34743 | 34076 ft | 432 kts | 359° |
| 2026-05-05 20:47 | -3.30550 | -78.35039 | 34074 ft | 431 kts | 359° |
| 2026-05-05 20:47 | -3.24555 | -78.35335 | 34074 ft | 432 kts | 359° |
| 2026-05-05 20:48 | -3.18574 | -78.35632 | 34075 ft | 432 kts | 359° |
| 2026-05-05 20:48 | -3.12601 | -78.35928 | 34074 ft | 431 kts | 359° |
| 2026-05-05 20:49 | -3.06622 | -78.36223 | 34073 ft | 432 kts | 359° |
| 2026-05-05 20:49 | -3.00617 | -78.36520 | 34066 ft | 432 kts | 360° |
| 2026-05-05 20:50 | -2.95644 | -78.36767 | 34039 ft | 431 kts | 360° |
| 2026-05-05 20:50 | -2.88669 | -78.37112 | 34007 ft | 432 kts | 360° |
| 2026-05-05 20:51 | -2.82665 | -78.37408 | 33996 ft | 432 kts | 360° |
| 2026-05-05 20:51 | -2.76636 | -78.37707 | 33996 ft | 432 kts | 360° |
| 2026-05-05 20:52 | -2.70655 | -78.38002 | 33996 ft | 432 kts | 360° |
| 2026-05-05 20:52 | -2.64636 | -78.38300 | 33996 ft | 432 kts | 0° |
| 2026-05-05 20:53 | -2.58657 | -78.38596 | 33995 ft | 432 kts | 0° |
| 2026-05-05 20:53 | -2.52859 | -78.38882 | 34002 ft | 432 kts | 0° |
| 2026-05-05 20:54 | -2.46901 | -78.39177 | 34033 ft | 431 kts | 0° |
| 2026-05-05 20:54 | -2.40891 | -78.39475 | 34063 ft | 432 kts | 0° |
| 2026-05-05 20:55 | -2.34926 | -78.39769 | 34075 ft | 432 kts | 0° |
| 2026-05-05 20:55 | -2.28938 | -78.40065 | 34075 ft | 432 kts | 0° |
| 2026-05-05 20:56 | -2.22934 | -78.40362 | 34075 ft | 432 kts | 0° |
| 2026-05-05 20:56 | -2.16939 | -78.40659 | 34075 ft | 432 kts | 0° |
| 2026-05-05 20:57 | -2.10960 | -78.40954 | 34075 ft | 432 kts | 0° |
| 2026-05-05 20:57 | -2.04954 | -78.41251 | 34075 ft | 431 kts | 0° |
| 2026-05-05 20:58 | -1.98988 | -78.41545 | 34074 ft | 432 kts | 0° |
| 2026-05-05 20:58 | -1.92989 | -78.41842 | 34074 ft | 432 kts | 0° |
| 2026-05-05 20:59 | -1.86980 | -78.42139 | 34135 ft | 431 kts | 0° |
| 2026-05-05 20:59 | -1.80981 | -78.42434 | 34236 ft | 433 kts | 0° |
| 2026-05-05 21:00 | -1.74894 | -78.42735 | 34336 ft | 434 kts | 360° |
| 2026-05-05 21:00 | -1.68854 | -78.43034 | 34346 ft | 434 kts | 360° |
| 2026-05-05 21:01 | -1.62843 | -78.43330 | 34347 ft | 433 kts | 360° |
| 2026-05-05 21:01 | -1.56859 | -78.43626 | 34347 ft | 434 kts | 0° |
| 2026-05-05 21:02 | -1.50817 | -78.43925 | 34347 ft | 434 kts | 0° |
| 2026-05-05 21:02 | -1.44829 | -78.44220 | 34346 ft | 434 kts | 0° |
| 2026-05-05 21:03 | -1.38775 | -78.44519 | 34347 ft | 434 kts | 0° |
| 2026-05-05 21:03 | -1.32755 | -78.44817 | 34346 ft | 434 kts | 0° |
| 2026-05-05 21:04 | -1.26773 | -78.45112 | 34346 ft | 435 kts | 360° |
| 2026-05-05 21:04 | -1.20730 | -78.45410 | 34364 ft | 435 kts | 360° |
| 2026-05-05 21:05 | -1.14673 | -78.45709 | 34385 ft | 436 kts | 360° |
| 2026-05-05 21:05 | -1.08634 | -78.46006 | 34400 ft | 436 kts | 0° |
| 2026-05-05 21:06 | -1.02611 | -78.46300 | 34399 ft | 436 kts | 0° |
| 2026-05-05 21:06 | -0.96541 | -78.46596 | 34399 ft | 436 kts | 0° |
| 2026-05-05 21:07 | -0.90505 | -78.46892 | 34399 ft | 437 kts | 360° |
| 2026-05-05 21:07 | -0.84424 | -78.47188 | 34402 ft | 439 kts | 360° |
| 2026-05-05 21:08 | -0.78313 | -78.47487 | 34402 ft | 439 kts | 0° |
| 2026-05-05 21:08 | -0.72212 | -78.47785 | 34402 ft | 439 kts | 0° |
| 2026-05-05 21:09 | -0.66116 | -78.48083 | 34402 ft | 440 kts | 0° |
| 2026-05-05 21:09 | -0.60020 | -78.48380 | 34379 ft | 440 kts | 0° |
| 2026-05-05 21:10 | -0.53912 | -78.48679 | 34316 ft | 441 kts | 0° |
| 2026-05-05 21:10 | -0.47789 | -78.48978 | 34254 ft | 441 kts | 0° |
| 2026-05-05 21:11 | -0.41691 | -78.49277 | 34238 ft | 441 kts | 0° |
| 2026-05-05 21:11 | -0.35560 | -78.49576 | 34239 ft | 442 kts | 0° |
| 2026-05-05 21:12 | -0.29407 | -78.49876 | 34239 ft | 442 kts | 0° |
| 2026-05-05 21:12 | -0.23319 | -78.50174 | 34238 ft | 442 kts | 0° |
| 2026-05-05 21:13 | -0.17166 | -78.50474 | 34239 ft | 443 kts | 0° |
| 2026-05-05 21:13 | -0.11036 | -78.50774 | 34191 ft | 443 kts | 0° |
| 2026-05-05 21:14 | -0.05943 | -78.51023 | 34115 ft | 441 kts | 0° |
| 2026-05-05 21:14 | 0.01182 | -78.51758 | 34011 ft | 442 kts | 355° |
| 2026-05-05 21:15 | 0.07268 | -78.52543 | 34003 ft | 443 kts | 356° |
| 2026-05-05 21:15 | 0.13373 | -78.53325 | 34003 ft | 443 kts | 356° |
| 2026-05-05 21:16 | 0.19483 | -78.54105 | 34004 ft | 443 kts | 356° |
| 2026-05-05 21:16 | 0.25581 | -78.54884 | 34003 ft | 443 kts | 356° |
| 2026-05-05 21:17 | 0.31679 | -78.55663 | 34003 ft | 443 kts | 356° |
| 2026-05-05 21:17 | 0.37804 | -78.56446 | 34003 ft | 443 kts | 356° |
| 2026-05-05 21:18 | 0.43890 | -78.57224 | 34003 ft | 442 kts | 356° |
| 2026-05-05 21:18 | 0.49994 | -78.58004 | 34008 ft | 442 kts | 356° |
| 2026-05-05 21:19 | 0.56072 | -78.58796 | 34086 ft | 443 kts | 355° |
| 2026-05-05 21:19 | 0.62191 | -78.59594 | 34166 ft | 444 kts | 355° |
| 2026-05-05 21:20 | 0.68298 | -78.60390 | 34213 ft | 445 kts | 355° |
| 2026-05-05 21:20 | 0.74401 | -78.61186 | 34211 ft | 444 kts | 355° |
| 2026-05-05 21:21 | 0.80515 | -78.61983 | 34212 ft | 444 kts | 355° |
| 2026-05-05 21:21 | 0.86610 | -78.62778 | 34212 ft | 444 kts | 355° |
| 2026-05-05 21:22 | 0.92739 | -78.63577 | 34212 ft | 444 kts | 355° |
| 2026-05-05 21:22 | 0.98844 | -78.64373 | 34212 ft | 444 kts | 355° |
| 2026-05-05 21:23 | 1.04966 | -78.65171 | 34208 ft | 443 kts | 355° |
| 2026-05-05 21:23 | 1.10997 | -78.65957 | 34207 ft | 443 kts | 355° |
| 2026-05-05 21:24 | 1.17120 | -78.66756 | 34150 ft | 444 kts | 355° |
| 2026-05-05 21:24 | 1.23203 | -78.67549 | 34047 ft | 443 kts | 355° |
| 2026-05-05 21:25 | 1.29329 | -78.68348 | 33946 ft | 443 kts | 355° |
| 2026-05-05 21:25 | 1.35422 | -78.69127 | 33937 ft | 443 kts | 356° |
| 2026-05-05 21:26 | 1.41522 | -78.69878 | 33937 ft | 443 kts | 356° |
| 2026-05-05 21:26 | 1.47603 | -78.70628 | 33937 ft | 443 kts | 356° |
| 2026-05-05 21:27 | 1.53733 | -78.71384 | 33937 ft | 443 kts | 356° |
| 2026-05-05 21:27 | 1.59859 | -78.72139 | 33937 ft | 443 kts | 356° |
| 2026-05-05 21:28 | 1.65948 | -78.72890 | 33937 ft | 443 kts | 356° |
| 2026-05-05 21:28 | 1.72064 | -78.73645 | 33937 ft | 443 kts | 356° |
| 2026-05-05 21:29 | 1.78174 | -78.74399 | 33934 ft | 443 kts | 356° |
| 2026-05-05 21:29 | 1.84290 | -78.75131 | 33904 ft | 443 kts | 356° |
| 2026-05-05 21:30 | 1.90377 | -78.75831 | 33873 ft | 444 kts | 356° |
| 2026-05-05 21:30 | 1.96522 | -78.76537 | 33856 ft | 444 kts | 356° |
| 2026-05-05 21:31 | 2.02639 | -78.77241 | 33855 ft | 444 kts | 356° |
| 2026-05-05 21:31 | 2.08765 | -78.77947 | 33855 ft | 445 kts | 356° |
| 2026-05-05 21:32 | 2.14909 | -78.78655 | 33857 ft | 445 kts | 356° |
| 2026-05-05 21:32 | 2.21048 | -78.79362 | 33857 ft | 445 kts | 356° |
| 2026-05-05 21:33 | 2.27202 | -78.80070 | 33857 ft | 445 kts | 356° |
| 2026-05-05 21:33 | 2.33339 | -78.80777 | 33857 ft | 445 kts | 356° |
| 2026-05-05 21:34 | 2.39479 | -78.81484 | 33857 ft | 445 kts | 356° |
| 2026-05-05 21:34 | 2.45607 | -78.82190 | 33857 ft | 445 kts | 356° |
| 2026-05-05 21:35 | 2.51750 | -78.82897 | 33857 ft | 445 kts | 356° |
| 2026-05-05 21:35 | 2.57893 | -78.83605 | 33857 ft | 445 kts | 356° |
| 2026-05-05 21:36 | 2.64008 | -78.84309 | 33857 ft | 445 kts | 356° |
| 2026-05-05 21:36 | 2.70176 | -78.85020 | 33857 ft | 445 kts | 356° |
| 2026-05-05 21:37 | 2.76280 | -78.85724 | 33857 ft | 445 kts | 356° |
| 2026-05-05 21:37 | 2.82448 | -78.86434 | 33857 ft | 445 kts | 356° |
| 2026-05-05 21:38 | 2.88569 | -78.87140 | 33857 ft | 445 kts | 356° |
| 2026-05-05 21:38 | 2.94724 | -78.87849 | 33857 ft | 445 kts | 356° |
| 2026-05-05 21:39 | 3.00875 | -78.88558 | 33857 ft | 445 kts | 356° |
| 2026-05-05 21:39 | 3.07008 | -78.89265 | 33857 ft | 445 kts | 356° |
| 2026-05-05 21:40 | 3.13160 | -78.89975 | 33858 ft | 445 kts | 356° |
| 2026-05-05 21:40 | 3.19310 | -78.90685 | 33857 ft | 445 kts | 356° |
| 2026-05-05 21:41 | 3.25474 | -78.91396 | 33857 ft | 445 kts | 356° |
| 2026-05-05 21:41 | 3.31597 | -78.92102 | 33857 ft | 445 kts | 356° |
| 2026-05-05 21:42 | 3.37737 | -78.92810 | 33857 ft | 445 kts | 356° |
| 2026-05-05 21:42 | 3.43893 | -78.93520 | 33857 ft | 445 kts | 356° |
| 2026-05-05 21:43 | 3.50003 | -78.94225 | 33858 ft | 445 kts | 355° |
| 2026-05-05 21:43 | 3.56137 | -78.94933 | 33853 ft | 445 kts | 355° |
| 2026-05-05 21:44 | 3.62298 | -78.95644 | 33843 ft | 445 kts | 355° |
| 2026-05-05 21:44 | 3.68461 | -78.96356 | 33833 ft | 445 kts | 355° |
| 2026-05-05 21:45 | 3.74598 | -78.97065 | 33831 ft | 445 kts | 355° |
| 2026-05-05 21:45 | 3.80737 | -78.97774 | 33832 ft | 445 kts | 355° |
| 2026-05-05 21:46 | 3.86859 | -78.98480 | 33833 ft | 445 kts | 355° |
| 2026-05-05 21:46 | 3.93002 | -78.99191 | 33834 ft | 445 kts | 355° |
| 2026-05-05 21:47 | 3.99160 | -78.99902 | 33834 ft | 445 kts | 355° |
| 2026-05-05 21:47 | 4.05257 | -79.00606 | 33834 ft | 444 kts | 355° |
| 2026-05-05 21:48 | 4.11398 | -79.01315 | 33837 ft | 445 kts | 355° |
| 2026-05-05 21:48 | 4.17543 | -79.02026 | 33838 ft | 445 kts | 355° |
| 2026-05-05 21:49 | 4.23650 | -79.02732 | 33838 ft | 444 kts | 355° |
| 2026-05-05 21:49 | 4.29765 | -79.03439 | 33839 ft | 444 kts | 355° |
| 2026-05-05 21:50 | 4.35904 | -79.04149 | 33840 ft | 444 kts | 355° |
| 2026-05-05 21:50 | 4.42022 | -79.04856 | 33841 ft | 444 kts | 355° |
| 2026-05-05 21:51 | 4.48149 | -79.05565 | 33842 ft | 444 kts | 355° |
| 2026-05-05 21:51 | 4.54285 | -79.06275 | 33842 ft | 444 kts | 355° |
| 2026-05-05 21:52 | 4.63468 | -79.07338 | 33843 ft | 444 kts | 355° |
| 2026-05-05 21:53 | 4.69575 | -79.08044 | 33841 ft | 444 kts | 355° |
| 2026-05-05 21:53 | 4.75734 | -79.08758 | 33836 ft | 444 kts | 355° |
| 2026-05-05 21:54 | 4.81827 | -79.09463 | 33831 ft | 444 kts | 355° |
| 2026-05-05 21:54 | 4.87980 | -79.10175 | 33831 ft | 444 kts | 355° |
| 2026-05-05 21:55 | 4.94072 | -79.10881 | 33831 ft | 444 kts | 355° |
| 2026-05-05 21:55 | 5.00207 | -79.11592 | 33830 ft | 443 kts | 355° |
| 2026-05-05 21:56 | 5.06315 | -79.12300 | 33831 ft | 443 kts | 355° |
| 2026-05-05 21:56 | 5.12437 | -79.13009 | 33832 ft | 443 kts | 355° |
| 2026-05-05 21:57 | 5.18575 | -79.13721 | 33831 ft | 443 kts | 355° |
| 2026-05-05 21:57 | 5.24673 | -79.14427 | 33831 ft | 443 kts | 355° |
| 2026-05-05 21:58 | 5.30785 | -79.15136 | 33831 ft | 443 kts | 355° |
| 2026-05-05 21:58 | 5.36903 | -79.15846 | 33831 ft | 443 kts | 355° |
| 2026-05-05 21:59 | 5.43006 | -79.16554 | 33831 ft | 443 kts | 355° |
| 2026-05-05 21:59 | 5.49102 | -79.17261 | 33831 ft | 443 kts | 354° |
| 2026-05-05 22:00 | 5.55210 | -79.17970 | 33831 ft | 443 kts | 355° |
| 2026-05-05 22:00 | 5.61338 | -79.18681 | 33831 ft | 443 kts | 354° |
| 2026-05-05 22:01 | 5.67427 | -79.19389 | 33830 ft | 443 kts | 354° |
| 2026-05-05 22:01 | 5.73534 | -79.20097 | 33831 ft | 443 kts | 354° |
| 2026-05-05 22:02 | 5.79628 | -79.20805 | 33831 ft | 443 kts | 354° |
| 2026-05-05 22:02 | 5.85762 | -79.21518 | 33831 ft | 443 kts | 354° |
| 2026-05-05 22:03 | 5.91836 | -79.22224 | 33831 ft | 442 kts | 354° |
| 2026-05-05 22:03 | 5.97924 | -79.22941 | 33838 ft | 442 kts | 354° |
| 2026-05-05 22:04 | 6.04033 | -79.23666 | 33848 ft | 442 kts | 354° |
| 2026-05-05 22:04 | 6.10144 | -79.24391 | 33857 ft | 442 kts | 354° |
| 2026-05-05 22:05 | 6.16257 | -79.25117 | 33859 ft | 442 kts | 354° |
| 2026-05-05 22:05 | 6.22354 | -79.25840 | 33859 ft | 443 kts | 354° |
| 2026-05-05 22:06 | 6.28474 | -79.26567 | 33858 ft | 443 kts | 354° |
| 2026-05-05 22:06 | 6.34539 | -79.27287 | 33858 ft | 443 kts | 354° |
| 2026-05-05 22:07 | 6.40631 | -79.28011 | 33858 ft | 443 kts | 354° |
| 2026-05-05 22:07 | 6.46745 | -79.28738 | 33858 ft | 443 kts | 354° |
| 2026-05-05 22:08 | 6.52871 | -79.29466 | 33858 ft | 443 kts | 354° |
| 2026-05-05 22:08 | 6.58946 | -79.30189 | 33858 ft | 443 kts | 354° |
| 2026-05-05 22:09 | 6.65058 | -79.30915 | 33858 ft | 443 kts | 354° |
| 2026-05-05 22:09 | 6.71164 | -79.31642 | 33858 ft | 443 kts | 354° |
| 2026-05-05 22:10 | 6.77267 | -79.32368 | 33858 ft | 443 kts | 354° |
| 2026-05-05 22:10 | 6.83380 | -79.33096 | 33858 ft | 443 kts | 354° |
| 2026-05-05 22:11 | 6.89450 | -79.33818 | 33858 ft | 443 kts | 354° |
| 2026-05-05 22:11 | 6.95565 | -79.34547 | 33858 ft | 443 kts | 354° |
| 2026-05-05 22:12 | 7.01659 | -79.35272 | 33858 ft | 443 kts | 354° |
| 2026-05-05 22:12 | 7.07776 | -79.36001 | 33858 ft | 443 kts | 354° |
| 2026-05-05 22:13 | 7.13944 | -79.36736 | 33859 ft | 443 kts | 354° |
| 2026-05-05 22:13 | 7.20071 | -79.37466 | 33859 ft | 443 kts | 354° |
| 2026-05-05 22:14 | 7.26189 | -79.38195 | 33858 ft | 443 kts | 354° |
| 2026-05-05 22:14 | 7.32298 | -79.38921 | 33858 ft | 444 kts | 354° |
| 2026-05-05 22:15 | 7.38383 | -79.39635 | 33858 ft | 444 kts | 354° |
| 2026-05-05 22:15 | 7.44495 | -79.40355 | 33859 ft | 444 kts | 354° |
| 2026-05-05 22:16 | 7.50639 | -79.41077 | 33858 ft | 444 kts | 354° |
| 2026-05-05 22:16 | 7.56755 | -79.41798 | 33858 ft | 444 kts | 354° |
| 2026-05-05 22:17 | 7.62884 | -79.42519 | 33858 ft | 444 kts | 354° |
| 2026-05-05 22:17 | 7.68985 | -79.43238 | 33858 ft | 444 kts | 354° |
| 2026-05-05 22:18 | 7.75104 | -79.43958 | 33858 ft | 444 kts | 354° |
| 2026-05-05 22:18 | 7.81230 | -79.44681 | 33858 ft | 444 kts | 354° |
| 2026-05-05 22:19 | 7.87373 | -79.45405 | 33858 ft | 444 kts | 354° |
| 2026-05-05 22:19 | 7.93467 | -79.46124 | 33858 ft | 444 kts | 354° |
| 2026-05-05 22:20 | 7.99614 | -79.46848 | 33858 ft | 444 kts | 354° |
| 2026-05-05 22:20 | 8.05757 | -79.47573 | 33858 ft | 445 kts | 354° |
| 2026-05-05 22:21 | 8.11876 | -79.48295 | 33859 ft | 445 kts | 354° |
| 2026-05-05 22:21 | 8.18051 | -79.49023 | 33859 ft | 445 kts | 354° |
| 2026-05-05 22:22 | 8.24206 | -79.49750 | 33858 ft | 445 kts | 354° |
| 2026-05-05 22:22 | 8.30362 | -79.50477 | 33858 ft | 445 kts | 354° |
| 2026-05-05 22:23 | 8.36475 | -79.51200 | 33858 ft | 445 kts | 354° |
| 2026-05-05 22:23 | 8.42619 | -79.51926 | 33858 ft | 445 kts | 354° |
| 2026-05-05 22:24 | 8.48783 | -79.52655 | 33858 ft | 445 kts | 354° |
| 2026-05-05 22:24 | 8.54916 | -79.53380 | 33858 ft | 445 kts | 354° |
| 2026-05-05 22:25 | 8.61060 | -79.54107 | 33858 ft | 445 kts | 354° |
| 2026-05-05 22:25 | 8.67164 | -79.54829 | 33858 ft | 445 kts | 354° |
| 2026-05-05 22:26 | 8.73307 | -79.55557 | 33859 ft | 445 kts | 354° |
| 2026-05-05 22:26 | 8.79451 | -79.56306 | 33857 ft | 445 kts | 352° |
| 2026-05-05 22:27 | 8.85550 | -79.57352 | 33858 ft | 445 kts | 351° |
| 2026-05-05 22:27 | 8.91650 | -79.58393 | 33858 ft | 445 kts | 351° |
| 2026-05-05 22:28 | 8.97745 | -79.59430 | 33857 ft | 445 kts | 351° |
| 2026-05-05 22:28 | 9.03846 | -79.60468 | 33858 ft | 446 kts | 351° |
| 2026-05-05 22:29 | 9.09942 | -79.61506 | 33858 ft | 445 kts | 351° |
| 2026-05-05 22:29 | 9.16059 | -79.62547 | 33858 ft | 445 kts | 351° |
| 2026-05-05 22:30 | 9.22133 | -79.63580 | 33858 ft | 446 kts | 351° |
| 2026-05-05 22:30 | 9.28250 | -79.64623 | 33858 ft | 446 kts | 351° |
| 2026-05-05 22:31 | 9.34368 | -79.65665 | 33858 ft | 446 kts | 351° |
| 2026-05-05 22:31 | 9.40474 | -79.66707 | 33858 ft | 446 kts | 351° |
| 2026-05-05 22:32 | 9.46574 | -79.67748 | 33858 ft | 446 kts | 351° |
| 2026-05-05 22:32 | 9.52713 | -79.68794 | 33858 ft | 447 kts | 351° |
| 2026-05-05 22:33 | 9.58827 | -79.69838 | 33858 ft | 447 kts | 351° |
| 2026-05-05 22:33 | 9.64943 | -79.70882 | 33858 ft | 447 kts | 351° |
| 2026-05-05 22:34 | 9.71069 | -79.71928 | 33858 ft | 447 kts | 351° |
| 2026-05-05 22:34 | 9.77167 | -79.72970 | 33858 ft | 447 kts | 351° |
| 2026-05-05 22:35 | 9.83292 | -79.74017 | 33858 ft | 447 kts | 351° |
| 2026-05-05 22:35 | 9.89426 | -79.75066 | 33858 ft | 447 kts | 351° |
| 2026-05-05 22:36 | 9.95519 | -79.76108 | 33858 ft | 447 kts | 351° |
| 2026-05-05 22:36 | 10.01638 | -79.77155 | 33858 ft | 447 kts | 351° |
| 2026-05-05 22:37 | 10.07768 | -79.78204 | 33858 ft | 447 kts | 351° |
| 2026-05-05 22:37 | 10.13863 | -79.79248 | 33858 ft | 447 kts | 351° |
| 2026-05-05 22:38 | 10.19993 | -79.80299 | 33858 ft | 447 kts | 351° |
| 2026-05-05 22:38 | 10.26105 | -79.81345 | 33857 ft | 447 kts | 350° |
| 2026-05-05 22:39 | 10.32223 | -79.82394 | 33859 ft | 447 kts | 350° |
| 2026-05-05 22:39 | 10.38002 | -79.83385 | 33858 ft | 446 kts | 350° |
| 2026-05-05 22:40 | 10.44129 | -79.84426 | 33858 ft | 446 kts | 351° |
| 2026-05-05 22:40 | 10.50238 | -79.85439 | 33858 ft | 446 kts | 351° |
| 2026-05-05 22:41 | 10.56325 | -79.86450 | 33857 ft | 444 kts | 351° |
| 2026-05-05 22:41 | 10.62404 | -79.87460 | 33858 ft | 445 kts | 351° |
| 2026-05-05 22:42 | 10.68523 | -79.88478 | 33857 ft | 443 kts | 351° |
| 2026-05-05 22:42 | 10.74561 | -79.89482 | 33858 ft | 443 kts | 351° |
| 2026-05-05 22:43 | 10.80646 | -79.90494 | 33858 ft | 443 kts | 351° |
| 2026-05-05 22:43 | 10.86703 | -79.91502 | 33857 ft | 442 kts | 351° |
| 2026-05-05 22:44 | 10.92756 | -79.92511 | 33857 ft | 441 kts | 351° |
| 2026-05-05 22:44 | 10.98795 | -79.93516 | 33860 ft | 441 kts | 350° |
| 2026-05-05 22:45 | 11.04818 | -79.94521 | 33859 ft | 440 kts | 350° |
| 2026-05-05 22:45 | 11.10845 | -79.95525 | 33860 ft | 439 kts | 350° |
| 2026-05-05 22:46 | 11.16871 | -79.96530 | 33864 ft | 438 kts | 350° |
| 2026-05-05 22:46 | 11.22873 | -79.97532 | 33865 ft | 438 kts | 350° |
| 2026-05-05 22:47 | 11.28861 | -79.98532 | 33865 ft | 437 kts | 350° |
| 2026-05-05 22:47 | 11.34828 | -79.99528 | 33866 ft | 436 kts | 350° |
| 2026-05-05 22:48 | 11.40829 | -80.00531 | 33873 ft | 435 kts | 350° |
| 2026-05-05 22:48 | 11.46761 | -80.01523 | 33884 ft | 435 kts | 350° |
| 2026-05-05 22:49 | 11.52702 | -80.02516 | 33894 ft | 434 kts | 350° |
| 2026-05-05 22:49 | 11.58664 | -80.03513 | 33897 ft | 434 kts | 350° |
| 2026-05-05 22:50 | 11.64588 | -80.04505 | 33898 ft | 434 kts | 350° |
| 2026-05-05 22:50 | 11.70555 | -80.05504 | 33898 ft | 433 kts | 350° |
| 2026-05-05 22:51 | 11.76470 | -80.06495 | 33900 ft | 433 kts | 350° |
| 2026-05-05 22:51 | 11.82398 | -80.07488 | 33901 ft | 433 kts | 350° |
| 2026-05-05 22:52 | 11.88310 | -80.08479 | 33903 ft | 433 kts | 350° |
| 2026-05-05 22:52 | 11.94274 | -80.09480 | 33907 ft | 433 kts | 350° |
| 2026-05-05 22:53 | 12.00169 | -80.10469 | 33909 ft | 433 kts | 350° |
| 2026-05-05 22:53 | 12.06111 | -80.11467 | 33910 ft | 433 kts | 350° |
| 2026-05-05 22:54 | 12.12059 | -80.12466 | 33913 ft | 433 kts | 350° |
| 2026-05-05 22:54 | 12.17962 | -80.13457 | 33913 ft | 433 kts | 350° |
| 2026-05-05 22:55 | 12.23928 | -80.14461 | 33913 ft | 433 kts | 350° |
| 2026-05-05 22:55 | 12.29843 | -80.15456 | 33912 ft | 433 kts | 350° |
| 2026-05-05 22:56 | 12.35780 | -80.16454 | 33913 ft | 432 kts | 350° |
| 2026-05-05 22:56 | 12.41699 | -80.17451 | 33912 ft | 432 kts | 350° |
| 2026-05-05 22:57 | 12.47599 | -80.18445 | 33912 ft | 432 kts | 350° |
| 2026-05-05 22:57 | 12.53529 | -80.19443 | 33918 ft | 432 kts | 350° |
| 2026-05-05 22:58 | 12.59430 | -80.20438 | 33928 ft | 432 kts | 350° |
| 2026-05-05 22:58 | 12.65334 | -80.21435 | 33936 ft | 431 kts | 350° |
| 2026-05-05 22:59 | 12.71269 | -80.22436 | 33938 ft | 431 kts | 350° |
| 2026-05-05 22:59 | 12.77169 | -80.23432 | 33937 ft | 431 kts | 350° |
| 2026-05-05 23:00 | 12.86030 | -80.24928 | 33938 ft | 431 kts | 350° |
| 2026-05-05 23:00 | 12.91930 | -80.25925 | 33937 ft | 430 kts | 350° |
| 2026-05-05 23:01 | 12.97819 | -80.26922 | 33936 ft | 431 kts | 350° |
| 2026-05-05 23:01 | 13.03728 | -80.27921 | 33936 ft | 431 kts | 350° |
| 2026-05-05 23:02 | 13.09607 | -80.28916 | 33937 ft | 430 kts | 350° |
| 2026-05-05 23:02 | 13.15510 | -80.29916 | 33940 ft | 429 kts | 350° |
| 2026-05-05 23:03 | 13.21363 | -80.30907 | 33939 ft | 430 kts | 350° |
| 2026-05-05 23:03 | 13.27261 | -80.31907 | 33939 ft | 430 kts | 350° |
| 2026-05-05 23:04 | 13.33146 | -80.32905 | 33939 ft | 430 kts | 349° |
| 2026-05-05 23:04 | 13.39053 | -80.33907 | 33938 ft | 430 kts | 349° |
| 2026-05-05 23:05 | 13.44926 | -80.34905 | 33938 ft | 429 kts | 349° |
| 2026-05-05 23:05 | 13.50791 | -80.35901 | 33938 ft | 429 kts | 349° |
| 2026-05-05 23:06 | 13.56686 | -80.36903 | 33937 ft | 429 kts | 349° |
| 2026-05-05 23:06 | 13.62562 | -80.37901 | 33937 ft | 430 kts | 349° |
| 2026-05-05 23:07 | 13.68458 | -80.38905 | 33937 ft | 429 kts | 349° |
| 2026-05-05 23:07 | 13.74315 | -80.39901 | 33937 ft | 430 kts | 349° |
| 2026-05-05 23:08 | 13.80230 | -80.40909 | 33936 ft | 430 kts | 349° |
| 2026-05-05 23:08 | 13.86098 | -80.41908 | 33936 ft | 430 kts | 349° |
| 2026-05-05 23:09 | 13.91974 | -80.42910 | 33936 ft | 430 kts | 349° |
| 2026-05-05 23:09 | 13.97861 | -80.43914 | 33936 ft | 430 kts | 349° |
| 2026-05-05 23:10 | 14.03743 | -80.44917 | 33935 ft | 430 kts | 349° |
| 2026-05-05 23:10 | 14.09630 | -80.45922 | 33934 ft | 428 kts | 349° |
| 2026-05-05 23:11 | 14.15494 | -80.46924 | 33939 ft | 429 kts | 349° |
| 2026-05-05 23:11 | 14.21383 | -80.47930 | 33939 ft | 428 kts | 349° |
| 2026-05-05 23:12 | 14.27261 | -80.48935 | 33938 ft | 428 kts | 349° |
| 2026-05-05 23:12 | 14.33116 | -80.49937 | 33938 ft | 428 kts | 349° |
| 2026-05-05 23:13 | 14.38965 | -80.50938 | 33938 ft | 428 kts | 349° |
| 2026-05-05 23:13 | 14.44825 | -80.51941 | 33938 ft | 428 kts | 349° |
| 2026-05-05 23:14 | 14.50696 | -80.52947 | 33937 ft | 428 kts | 349° |
| 2026-05-05 23:14 | 14.56556 | -80.53952 | 33937 ft | 428 kts | 349° |
| 2026-05-05 23:15 | 14.62442 | -80.54961 | 33936 ft | 427 kts | 349° |
| 2026-05-05 23:15 | 14.68260 | -80.55960 | 33937 ft | 427 kts | 350° |
| 2026-05-05 23:16 | 14.74132 | -80.56969 | 33936 ft | 427 kts | 350° |
| 2026-05-05 23:16 | 14.79975 | -80.57972 | 33936 ft | 427 kts | 350° |
| 2026-05-05 23:17 | 14.85814 | -80.58976 | 33936 ft | 427 kts | 350° |
| 2026-05-05 23:17 | 14.91643 | -80.59979 | 33935 ft | 426 kts | 350° |
| 2026-05-05 23:18 | 14.97496 | -80.60986 | 33935 ft | 426 kts | 350° |
| 2026-05-05 23:18 | 15.03325 | -80.61992 | 33934 ft | 425 kts | 350° |
| 2026-05-05 23:19 | 15.09130 | -80.62995 | 33935 ft | 425 kts | 350° |
| 2026-05-05 23:19 | 15.14957 | -80.64003 | 33939 ft | 425 kts | 350° |
| 2026-05-05 23:20 | 15.20767 | -80.65008 | 33939 ft | 425 kts | 350° |
| 2026-05-05 23:20 | 15.26584 | -80.66016 | 33941 ft | 425 kts | 350° |
| 2026-05-05 23:21 | 15.32402 | -80.67024 | 33940 ft | 425 kts | 350° |
| 2026-05-05 23:21 | 15.38224 | -80.68033 | 33940 ft | 425 kts | 350° |
| 2026-05-05 23:22 | 15.44065 | -80.69046 | 33940 ft | 425 kts | 350° |
| 2026-05-05 23:22 | 15.49863 | -80.70052 | 33940 ft | 425 kts | 350° |
| 2026-05-05 23:23 | 15.55672 | -80.71061 | 33943 ft | 424 kts | 350° |
| 2026-05-05 23:23 | 15.61459 | -80.72066 | 33952 ft | 424 kts | 350° |
| 2026-05-05 23:24 | 15.67283 | -80.73079 | 33961 ft | 424 kts | 350° |
| 2026-05-05 23:24 | 15.73077 | -80.74087 | 33965 ft | 424 kts | 350° |
| 2026-05-05 23:25 | 15.78874 | -80.75095 | 33965 ft | 424 kts | 350° |
| 2026-05-05 23:25 | 15.84702 | -80.76111 | 33964 ft | 424 kts | 350° |
| 2026-05-05 23:26 | 15.90502 | -80.77122 | 33964 ft | 424 kts | 350° |
| 2026-05-05 23:26 | 15.96307 | -80.78133 | 33964 ft | 424 kts | 350° |
| 2026-05-05 23:27 | 16.02102 | -80.79145 | 33964 ft | 423 kts | 350° |
| 2026-05-05 23:27 | 16.07912 | -80.80158 | 33963 ft | 422 kts | 350° |
| 2026-05-05 23:28 | 16.13679 | -80.81166 | 33969 ft | 423 kts | 350° |
| 2026-05-05 23:28 | 16.19500 | -80.82183 | 33968 ft | 423 kts | 350° |
| 2026-05-05 23:29 | 16.25281 | -80.83194 | 33968 ft | 423 kts | 350° |
| 2026-05-05 23:29 | 16.31046 | -80.84203 | 33967 ft | 423 kts | 350° |
| 2026-05-05 23:30 | 16.35911 | -80.85055 | 33967 ft | 423 kts | 350° |
| 2026-05-05 23:30 | 16.42733 | -80.86249 | 33967 ft | 422 kts | 350° |
| 2026-05-05 23:31 | 16.48528 | -80.87265 | 33967 ft | 422 kts | 350° |
| 2026-05-05 23:31 | 16.54391 | -80.88294 | 33966 ft | 422 kts | 350° |
| 2026-05-05 23:32 | 16.60238 | -80.89320 | 34530 ft | 425 kts | 350° |
| 2026-05-05 23:32 | 16.63121 | -80.89825 | 35241 ft | 422 kts | 349° |
| 2026-05-05 23:32 | 16.65987 | -80.90327 | 35807 ft | 421 kts | 349° |
| 2026-05-05 23:33 | 16.68894 | -80.90839 | 35970 ft | 423 kts | 349° |
| 2026-05-05 23:33 | 16.71790 | -80.91348 | 35966 ft | 420 kts | 349° |
| 2026-05-05 23:33 | 16.77517 | -80.92355 | 35981 ft | 417 kts | 349° |
| 2026-05-05 23:34 | 16.83224 | -80.93359 | 35986 ft | 418 kts | 349° |
| 2026-05-05 23:34 | 16.88947 | -80.94367 | 35984 ft | 417 kts | 349° |
| 2026-05-05 23:35 | 16.94655 | -80.95373 | 35982 ft | 418 kts | 349° |
| 2026-05-05 23:35 | 17.00389 | -80.96383 | 35981 ft | 417 kts | 349° |
| 2026-05-05 23:36 | 17.06119 | -80.97394 | 35978 ft | 416 kts | 349° |
| 2026-05-05 23:36 | 17.11814 | -80.98399 | 35984 ft | 416 kts | 349° |
| 2026-05-05 23:37 | 17.17539 | -80.99410 | 35982 ft | 416 kts | 349° |
| 2026-05-05 23:37 | 17.23220 | -81.00414 | 35980 ft | 417 kts | 349° |
| 2026-05-05 23:38 | 17.28965 | -81.01429 | 35980 ft | 417 kts | 349° |
| 2026-05-05 23:38 | 17.34664 | -81.02438 | 35978 ft | 416 kts | 349° |
| 2026-05-05 23:39 | 17.40371 | -81.03448 | 35977 ft | 416 kts | 349° |
| 2026-05-05 23:39 | 17.46086 | -81.04460 | 35975 ft | 416 kts | 349° |
| 2026-05-05 23:40 | 17.51796 | -81.05472 | 35973 ft | 416 kts | 349° |
| 2026-05-05 23:40 | 17.57495 | -81.06483 | 35972 ft | 416 kts | 349° |
| 2026-05-05 23:41 | 17.63220 | -81.07499 | 35970 ft | 416 kts | 349° |
| 2026-05-05 23:41 | 17.68936 | -81.08514 | 35969 ft | 416 kts | 349° |
| 2026-05-05 23:42 | 17.74624 | -81.09525 | 35967 ft | 415 kts | 349° |
| 2026-05-05 23:42 | 17.80305 | -81.10535 | 35966 ft | 415 kts | 349° |
| 2026-05-05 23:43 | 17.85976 | -81.11544 | 35964 ft | 415 kts | 349° |
| 2026-05-05 23:43 | 17.91664 | -81.12557 | 35963 ft | 415 kts | 349° |
| 2026-05-05 23:44 | 17.97380 | -81.13575 | 35969 ft | 415 kts | 349° |
| 2026-05-05 23:44 | 18.03081 | -81.14591 | 35977 ft | 413 kts | 349° |
| 2026-05-05 23:45 | 18.08702 | -81.15595 | 35988 ft | 413 kts | 349° |
| 2026-05-05 23:45 | 18.14384 | -81.16608 | 35995 ft | 413 kts | 349° |
| 2026-05-05 23:46 | 18.20026 | -81.17616 | 35994 ft | 413 kts | 349° |
| 2026-05-05 23:46 | 18.25718 | -81.18634 | 35994 ft | 413 kts | 349° |
| 2026-05-05 23:47 | 18.31381 | -81.19647 | 35994 ft | 413 kts | 349° |
| 2026-05-05 23:47 | 18.37030 | -81.20657 | 35994 ft | 412 kts | 349° |
| 2026-05-05 23:48 | 18.42648 | -81.21664 | 35993 ft | 412 kts | 349° |
| 2026-05-05 23:48 | 18.48304 | -81.22678 | 35992 ft | 412 kts | 349° |
| 2026-05-05 23:49 | 18.53973 | -81.23695 | 35992 ft | 412 kts | 349° |
| 2026-05-05 23:49 | 18.59605 | -81.24706 | 35991 ft | 412 kts | 349° |
| 2026-05-05 23:50 | 18.65264 | -81.25722 | 35991 ft | 411 kts | 349° |
| 2026-05-05 23:50 | 18.70877 | -81.26730 | 35991 ft | 411 kts | 349° |
| 2026-05-05 23:51 | 18.76521 | -81.27745 | 35990 ft | 411 kts | 349° |
| 2026-05-05 23:51 | 18.82136 | -81.28756 | 35989 ft | 411 kts | 349° |
| 2026-05-05 23:52 | 18.87776 | -81.29771 | 35987 ft | 410 kts | 349° |
| 2026-05-05 23:52 | 18.93390 | -81.30783 | 35989 ft | 411 kts | 349° |
| 2026-05-05 23:53 | 18.99022 | -81.31799 | 35987 ft | 409 kts | 349° |
| 2026-05-05 23:53 | 19.04631 | -81.32811 | 35988 ft | 409 kts | 349° |
| 2026-05-05 23:54 | 19.10216 | -81.33820 | 35987 ft | 409 kts | 349° |
| 2026-05-05 23:54 | 19.15876 | -81.34842 | 35994 ft | 410 kts | 349° |
| 2026-05-05 23:55 | 19.21477 | -81.35854 | 35994 ft | 409 kts | 349° |
| 2026-05-05 23:55 | 19.27082 | -81.36868 | 35992 ft | 408 kts | 349° |
| 2026-05-05 23:56 | 19.32727 | -81.37448 | 35996 ft | 409 kts | 354° |
| 2026-05-05 23:56 | 19.38393 | -81.37847 | 35992 ft | 408 kts | 354° |
| 2026-05-05 23:57 | 19.44025 | -81.38236 | 35992 ft | 409 kts | 354° |
| 2026-05-05 23:57 | 19.49710 | -81.38626 | 35991 ft | 409 kts | 354° |
| 2026-05-05 23:58 | 19.55369 | -81.39014 | 35991 ft | 409 kts | 354° |
| 2026-05-05 23:58 | 19.61069 | -81.39405 | 35990 ft | 409 kts | 354° |
| 2026-05-05 23:59 | 19.66739 | -81.39794 | 35990 ft | 409 kts | 354° |
| 2026-05-05 23:59 | 19.72375 | -81.40182 | 35989 ft | 407 kts | 354° |
| 2026-05-06 00:00 | 19.78001 | -81.40569 | 35989 ft | 408 kts | 354° |
| 2026-05-06 00:00 | 19.83661 | -81.40958 | 35988 ft | 408 kts | 354° |
| 2026-05-06 00:01 | 19.89335 | -81.41348 | 35988 ft | 408 kts | 354° |
| 2026-05-06 00:01 | 19.94992 | -81.41738 | 35987 ft | 408 kts | 354° |
| 2026-05-06 00:02 | 20.00637 | -81.42127 | 35987 ft | 408 kts | 354° |
| 2026-05-06 00:02 | 20.06295 | -81.42518 | 35985 ft | 405 kts | 354° |
| 2026-05-06 00:03 | 20.11865 | -81.42902 | 35994 ft | 406 kts | 354° |
| 2026-05-06 00:03 | 20.17566 | -81.43296 | 35992 ft | 405 kts | 354° |
| 2026-05-06 00:04 | 20.23225 | -81.43687 | 35994 ft | 405 kts | 354° |
| 2026-05-06 00:04 | 20.28887 | -81.44079 | 35993 ft | 405 kts | 354° |
| 2026-05-06 00:05 | 20.37420 | -81.44670 | 35992 ft | 406 kts | 354° |
| 2026-05-06 00:06 | 20.43141 | -81.45067 | 35991 ft | 406 kts | 354° |
| 2026-05-06 00:06 | 20.48788 | -81.45458 | 35991 ft | 406 kts | 354° |
| 2026-05-06 00:07 | 20.54462 | -81.45853 | 35990 ft | 404 kts | 354° |
| 2026-05-06 00:07 | 20.60072 | -81.46242 | 35990 ft | 405 kts | 354° |
| 2026-05-06 00:08 | 20.65719 | -81.46635 | 35989 ft | 405 kts | 354° |
| 2026-05-06 00:08 | 20.71307 | -81.47024 | 35989 ft | 404 kts | 354° |
| 2026-05-06 00:09 | 20.76002 | -81.47350 | 35988 ft | 404 kts | 354° |
| 2026-05-06 00:09 | 20.82507 | -81.47804 | 35987 ft | 404 kts | 354° |
| 2026-05-06 00:10 | 20.87193 | -81.48131 | 35987 ft | 403 kts | 354° |
| 2026-05-06 00:10 | 20.92803 | -81.48522 | 35987 ft | 403 kts | 354° |
| 2026-05-06 00:11 | 20.99226 | -81.48971 | 35989 ft | 403 kts | 354° |
| 2026-05-06 00:11 | 21.04955 | -81.49371 | 35997 ft | 402 kts | 353° |
| 2026-05-06 00:12 | 21.10632 | -81.49768 | 36009 ft | 403 kts | 353° |
| 2026-05-06 00:12 | 21.16147 | -81.50154 | 36020 ft | 402 kts | 353° |
| 2026-05-06 00:13 | 21.21690 | -81.50542 | 36020 ft | 402 kts | 353° |
| 2026-05-06 00:13 | 21.27279 | -81.50934 | 36018 ft | 401 kts | 353° |
| 2026-05-06 00:14 | 21.32846 | -81.51324 | 36019 ft | 401 kts | 353° |
| 2026-05-06 00:14 | 21.38417 | -81.51717 | 36018 ft | 401 kts | 354° |
| 2026-05-06 00:15 | 21.42980 | -81.52037 | 36018 ft | 401 kts | 354° |
| 2026-05-06 00:15 | 21.48558 | -81.52429 | 36017 ft | 401 kts | 354° |
| 2026-05-06 00:16 | 21.55089 | -81.52889 | 36016 ft | 401 kts | 354° |
| 2026-05-06 00:16 | 21.59713 | -81.53182 | 36013 ft | 402 kts | 357° |
| 2026-05-06 00:17 | 21.66268 | -81.52534 | 36015 ft | 405 kts | 3° |
| 2026-05-06 00:17 | 21.71849 | -81.51854 | 36014 ft | 404 kts | 3° |
| 2026-05-06 00:18 | 21.76513 | -81.51278 | 36014 ft | 404 kts | 3° |
| 2026-05-06 00:18 | 21.82128 | -81.50581 | 36014 ft | 404 kts | 3° |
| 2026-05-06 00:19 | 21.87697 | -81.49888 | 36013 ft | 404 kts | 3° |
| 2026-05-06 00:19 | 21.93324 | -81.49186 | 36013 ft | 404 kts | 3° |
| 2026-05-06 00:20 | 21.98923 | -81.48488 | 36012 ft | 404 kts | 3° |
| 2026-05-06 00:20 | 22.04479 | -81.47794 | 36009 ft | 402 kts | 3° |
| 2026-05-06 00:21 | 22.10068 | -81.47096 | 36012 ft | 403 kts | 3° |
| 2026-05-06 00:21 | 22.15655 | -81.46397 | 36031 ft | 403 kts | 3° |
| 2026-05-06 00:22 | 22.21224 | -81.45699 | 36040 ft | 403 kts | 3° |
| 2026-05-06 00:22 | 22.27716 | -81.44886 | 36047 ft | 404 kts | 3° |
| 2026-05-06 00:23 | 22.32391 | -81.44300 | 36046 ft | 403 kts | 3° |
| 2026-05-06 00:23 | 22.37964 | -81.43601 | 36046 ft | 403 kts | 2° |
| 2026-05-06 00:24 | 22.43531 | -81.42902 | 36044 ft | 403 kts | 2° |
| 2026-05-06 00:24 | 22.50059 | -81.42082 | 36044 ft | 403 kts | 2° |
| 2026-05-06 00:25 | 22.55641 | -81.41379 | 36043 ft | 402 kts | 2° |
| 2026-05-06 00:25 | 22.60266 | -81.40797 | 36043 ft | 402 kts | 2° |
| 2026-05-06 00:26 | 22.65830 | -81.40099 | 36042 ft | 402 kts | 2° |
| 2026-05-06 00:26 | 22.71397 | -81.39411 | 36043 ft | 402 kts | 2° |
| 2026-05-06 00:27 | 22.77893 | -81.38609 | 36041 ft | 402 kts | 2° |
| 2026-05-06 00:27 | 22.83454 | -81.37920 | 36041 ft | 403 kts | 2° |
| 2026-05-06 00:28 | 22.89013 | -81.37232 | 36039 ft | 401 kts | 2° |
| 2026-05-06 00:28 | 22.94552 | -81.36546 | 36039 ft | 402 kts | 2° |
| 2026-05-06 00:29 | 23.00099 | -81.35857 | 36038 ft | 401 kts | 2° |
| 2026-05-06 00:29 | 23.04760 | -81.35279 | 36038 ft | 401 kts | 2° |
| 2026-05-06 00:30 | 23.10309 | -81.34590 | 36038 ft | 402 kts | 2° |
| 2026-05-06 00:30 | 23.16802 | -81.33781 | 36048 ft | 400 kts | 2° |
| 2026-05-06 00:31 | 23.21409 | -81.33207 | 36048 ft | 401 kts | 2° |
| 2026-05-06 00:31 | 23.26950 | -81.32514 | 36047 ft | 401 kts | 2° |
| 2026-05-06 00:32 | 23.32469 | -81.31824 | 36047 ft | 400 kts | 2° |
| 2026-05-06 00:32 | 23.38948 | -81.31014 | 36047 ft | 401 kts | 1° |
| 2026-05-06 00:33 | 23.43548 | -81.30437 | 36045 ft | 401 kts | 1° |
| 2026-05-06 00:33 | 23.49106 | -81.29741 | 36045 ft | 401 kts | 1° |
| 2026-05-06 00:34 | 23.54633 | -81.29047 | 36044 ft | 401 kts | 1° |
| 2026-05-06 00:34 | 23.60177 | -81.28351 | 36043 ft | 400 kts | 1° |
| 2026-05-06 00:35 | 23.65737 | -81.27653 | 36043 ft | 401 kts | 1° |
| 2026-05-06 00:35 | 23.71277 | -81.26955 | 36042 ft | 400 kts | 1° |
| 2026-05-06 00:36 | 23.77770 | -81.26138 | 36041 ft | 401 kts | 1° |
| 2026-05-06 00:36 | 23.83299 | -81.25442 | 36041 ft | 401 kts | 1° |
| 2026-05-06 00:37 | 23.88854 | -81.24741 | 36036 ft | 401 kts | 1° |
| 2026-05-06 00:37 | 23.94412 | -81.24040 | 36029 ft | 401 kts | 1° |
| 2026-05-06 00:38 | 23.99024 | -81.23457 | 36023 ft | 401 kts | 1° |
| 2026-05-06 00:38 | 24.04590 | -81.22674 | 36016 ft | 399 kts | 1° |
| 2026-05-06 00:39 | 24.10092 | -81.21885 | 36019 ft | 400 kts | 1° |
| 2026-05-06 00:39 | 24.15680 | -81.21081 | 36029 ft | 400 kts | 1° |
| 2026-05-06 00:40 | 24.21188 | -81.20289 | 36029 ft | 399 kts | 1° |
| 2026-05-06 00:40 | 24.26692 | -81.19496 | 36028 ft | 400 kts | 1° |
| 2026-05-06 00:41 | 24.32220 | -81.18700 | 36028 ft | 401 kts | 1° |
| 2026-05-06 00:41 | 24.37552 | -81.17930 | 36027 ft | 400 kts | 1° |
| 2026-05-06 00:42 | 24.43088 | -81.17130 | 36026 ft | 399 kts | 1° |
| 2026-05-06 00:42 | 24.48610 | -81.16333 | 36026 ft | 400 kts | 1° |
| 2026-05-06 00:43 | 24.54088 | -81.15540 | 36023 ft | 400 kts | 1° |
| 2026-05-06 00:43 | 24.59648 | -81.15137 | 36021 ft | 389 kts | 349° |
| 2026-05-06 00:44 | 24.65045 | -81.16087 | 36015 ft | 388 kts | 346° |
| 2026-05-06 00:44 | 24.70384 | -81.17128 | 36014 ft | 387 kts | 345° |
| 2026-05-06 00:45 | 24.75699 | -81.18186 | 36013 ft | 387 kts | 345° |
| 2026-05-06 00:45 | 24.81020 | -81.19254 | 36012 ft | 387 kts | 345° |
| 2026-05-06 00:46 | 24.86337 | -81.20322 | 36012 ft | 387 kts | 345° |
| 2026-05-06 00:46 | 24.91620 | -81.21386 | 36011 ft | 386 kts | 345° |
| 2026-05-06 00:47 | 24.96926 | -81.22456 | 36010 ft | 386 kts | 345° |
| 2026-05-06 00:47 | 25.02220 | -81.23523 | 36008 ft | 385 kts | 345° |
| 2026-05-06 00:48 | 25.07496 | -81.24588 | 36008 ft | 385 kts | 345° |
| 2026-05-06 00:48 | 25.12828 | -81.25666 | 36021 ft | 386 kts | 345° |
| 2026-05-06 00:49 | 25.18098 | -81.26731 | 36021 ft | 384 kts | 345° |
| 2026-05-06 00:49 | 25.22951 | -81.27714 | 36024 ft | 385 kts | 345° |
| 2026-05-06 00:50 | 25.28226 | -81.28783 | 36026 ft | 385 kts | 345° |
| 2026-05-06 00:50 | 25.33521 | -81.29856 | 36025 ft | 383 kts | 345° |
| 2026-05-06 00:51 | 25.38757 | -81.30919 | 36025 ft | 384 kts | 345° |
| 2026-05-06 00:51 | 25.44062 | -81.31996 | 36025 ft | 384 kts | 345° |
| 2026-05-06 00:52 | 25.49306 | -81.33063 | 36024 ft | 383 kts | 345° |
| 2026-05-06 00:52 | 25.54529 | -81.34126 | 36023 ft | 383 kts | 345° |
| 2026-05-06 00:53 | 25.59736 | -81.35186 | 36022 ft | 383 kts | 345° |
| 2026-05-06 00:53 | 25.64980 | -81.36255 | 36020 ft | 382 kts | 345° |
| 2026-05-06 00:54 | 25.70166 | -81.37313 | 36021 ft | 382 kts | 345° |
| 2026-05-06 00:54 | 25.75403 | -81.38383 | 36020 ft | 383 kts | 345° |
| 2026-05-06 00:55 | 25.80620 | -81.39449 | 36020 ft | 383 kts | 345° |
| 2026-05-06 00:55 | 25.85876 | -81.40524 | 36022 ft | 383 kts | 345° |
| 2026-05-06 00:56 | 25.91121 | -81.41598 | 36024 ft | 382 kts | 344° |
| 2026-05-06 00:56 | 25.96350 | -81.42670 | 36025 ft | 382 kts | 345° |
| 2026-05-06 00:57 | 26.01577 | -81.43742 | 36026 ft | 382 kts | 344° |
| 2026-05-06 00:57 | 26.06790 | -81.44812 | 36024 ft | 380 kts | 344° |
| 2026-05-06 00:58 | 26.12009 | -81.45888 | 36036 ft | 381 kts | 344° |
| 2026-05-06 00:58 | 26.17170 | -81.46962 | 36034 ft | 379 kts | 344° |
| 2026-05-06 00:59 | 26.22386 | -81.48050 | 36035 ft | 379 kts | 344° |
| 2026-05-06 00:59 | 26.27571 | -81.49132 | 36034 ft | 380 kts | 344° |
| 2026-05-06 01:00 | 26.32661 | -81.50195 | 36037 ft | 380 kts | 344° |
| 2026-05-06 01:00 | 26.37868 | -81.51283 | 36038 ft | 380 kts | 344° |
| 2026-05-06 01:01 | 26.43045 | -81.52367 | 36040 ft | 380 kts | 344° |
| 2026-05-06 01:01 | 26.48246 | -81.53456 | 36039 ft | 380 kts | 344° |
| 2026-05-06 01:02 | 26.53441 | -81.54545 | 36037 ft | 379 kts | 344° |
| 2026-05-06 01:02 | 26.58619 | -81.55631 | 36038 ft | 379 kts | 344° |
| 2026-05-06 01:03 | 26.63781 | -81.56715 | 36036 ft | 379 kts | 344° |
| 2026-05-06 01:03 | 26.68965 | -81.57805 | 36036 ft | 379 kts | 344° |
| 2026-05-06 01:04 | 26.74155 | -81.58897 | 36035 ft | 378 kts | 344° |
| 2026-05-06 01:04 | 26.79170 | -81.59953 | 36034 ft | 379 kts | 344° |
| 2026-05-06 01:05 | 26.84344 | -81.61043 | 36034 ft | 379 kts | 343° |
| 2026-05-06 01:05 | 26.89524 | -81.62136 | 36032 ft | 378 kts | 343° |
| 2026-05-06 01:06 | 26.94693 | -81.63228 | 36037 ft | 378 kts | 343° |
| 2026-05-06 01:06 | 26.99845 | -81.64317 | 36043 ft | 378 kts | 343° |
| 2026-05-06 01:07 | 27.04986 | -81.65406 | 36061 ft | 377 kts | 343° |
| 2026-05-06 01:07 | 27.10102 | -81.66544 | 36060 ft | 377 kts | 343° |
| 2026-05-06 01:08 | 27.15244 | -81.67690 | 36073 ft | 376 kts | 342° |
| 2026-05-06 01:08 | 27.20358 | -81.68832 | 36072 ft | 375 kts | 342° |
| 2026-05-06 01:09 | 27.25508 | -81.69983 | 36071 ft | 376 kts | 342° |
| 2026-05-06 01:09 | 27.30642 | -81.71131 | 36070 ft | 376 kts | 342° |
| 2026-05-06 01:10 | 27.35753 | -81.72275 | 36069 ft | 374 kts | 342° |
| 2026-05-06 01:10 | 27.40868 | -81.73422 | 36069 ft | 375 kts | 342° |
| 2026-05-06 01:11 | 27.45967 | -81.74565 | 36068 ft | 375 kts | 342° |
| 2026-05-06 01:11 | 27.51055 | -81.75707 | 36068 ft | 376 kts | 342° |
| 2026-05-06 01:12 | 27.56202 | -81.76865 | 36064 ft | 375 kts | 342° |
| 2026-05-06 01:12 | 27.60926 | -81.79003 | 36070 ft | 364 kts | 327° |
| 2026-05-06 01:13 | 27.65292 | -81.81873 | 36057 ft | 365 kts | 326° |
| 2026-05-06 01:13 | 27.69643 | -81.84780 | 36054 ft | 364 kts | 326° |
| 2026-05-06 01:14 | 27.76173 | -81.89175 | 36047 ft | 364 kts | 326° |
| 2026-05-06 01:14 | 27.80513 | -81.92106 | 36043 ft | 364 kts | 326° |
| 2026-05-06 01:15 | 27.84861 | -81.95045 | 36039 ft | 364 kts | 326° |
| 2026-05-06 01:15 | 27.89221 | -81.97996 | 36034 ft | 364 kts | 326° |
| 2026-05-06 01:16 | 27.93481 | -82.00881 | 36030 ft | 364 kts | 326° |
| 2026-05-06 01:16 | 27.97822 | -82.03825 | 36026 ft | 364 kts | 326° |
| 2026-05-06 01:17 | 28.02173 | -82.06778 | 36021 ft | 364 kts | 326° |
| 2026-05-06 01:17 | 28.05966 | -82.09354 | 36018 ft | 364 kts | 326° |
| 2026-05-06 01:18 | 28.10275 | -82.12341 | 36018 ft | 364 kts | 325° |
| 2026-05-06 01:18 | 28.14343 | -82.15235 | 36030 ft | 364 kts | 325° |
| 2026-05-06 01:19 | 28.18622 | -82.18281 | 36031 ft | 364 kts | 325° |
| 2026-05-06 01:19 | 28.22859 | -82.21299 | 36035 ft | 364 kts | 325° |
| 2026-05-06 01:20 | 28.26985 | -82.24241 | 36037 ft | 363 kts | 325° |
| 2026-05-06 01:20 | 28.31271 | -82.27299 | 36043 ft | 363 kts | 325° |
| 2026-05-06 01:21 | 28.35579 | -82.30376 | 36043 ft | 363 kts | 325° |
| 2026-05-06 01:21 | 28.39863 | -82.33440 | 36042 ft | 363 kts | 325° |
| 2026-05-06 01:22 | 28.44126 | -82.36491 | 36041 ft | 362 kts | 325° |
| 2026-05-06 01:22 | 28.48372 | -82.39533 | 36040 ft | 362 kts | 325° |
| 2026-05-06 01:23 | 28.52628 | -82.42586 | 36039 ft | 362 kts | 324° |
| 2026-05-06 01:23 | 28.56922 | -82.45667 | 36039 ft | 362 kts | 324° |
| 2026-05-06 01:24 | 28.61183 | -82.48729 | 36037 ft | 361 kts | 324° |
| 2026-05-06 01:24 | 28.65472 | -82.51814 | 36036 ft | 362 kts | 324° |
| 2026-05-06 01:25 | 28.69719 | -82.54872 | 36038 ft | 361 kts | 324° |
| 2026-05-06 01:25 | 28.74005 | -82.57960 | 36039 ft | 361 kts | 324° |
| 2026-05-06 01:26 | 28.78300 | -82.61058 | 36040 ft | 361 kts | 324° |
| 2026-05-06 01:26 | 28.82551 | -82.64128 | 36040 ft | 360 kts | 324° |
| 2026-05-06 01:27 | 28.86750 | -82.67163 | 36055 ft | 360 kts | 324° |
| 2026-05-06 01:27 | 28.90971 | -82.70216 | 36053 ft | 360 kts | 324° |
| 2026-05-06 01:28 | 28.95175 | -82.73261 | 36052 ft | 360 kts | 324° |
| 2026-05-06 01:28 | 28.99425 | -82.76341 | 36052 ft | 360 kts | 324° |
| 2026-05-06 01:29 | 29.03647 | -82.79404 | 36050 ft | 359 kts | 324° |
| 2026-05-06 01:29 | 29.07854 | -82.82460 | 36049 ft | 359 kts | 324° |
| 2026-05-06 01:30 | 29.12057 | -82.85516 | 36064 ft | 359 kts | 324° |